Time;durP1;ratioP1;P1;durP2;ratioP2;P2;SDS_P1;SDS_P2;PMS_P1;PMS_P2;Temp;Humidity;BMP_temperature;BMP_pressure;BME280_temperature;BME280_humidity;BME280_pressure;Samples;Min_cycle;Max_cycle;Signal;HPM_P1;HPM_P2
2023/02/03 00:02:02;;;;;;;3.95;1.63;;;;;;;0.82;69.51;94117.84;5006255;28;20029;-76
2023/02/03 00:04:27;;;;;;;3.33;1.70;;;;;;;0.73;70.09;94116.66;5005926;28;20026;-75
2023/02/03 00:06:52;;;;;;;2.83;1.67;;;;;;;0.70;70.65;94122.41;5006061;28;20249;-75
2023/02/03 00:09:19;;;;;;;5.55;1.90;;;;;;;0.60;71.57;94116.00;5005997;28;20041;-75
2023/02/03 00:11:44;;;;;;;3.85;1.50;;;;;;;0.53;72.00;94112.78;5005860;28;20042;-76
2023/02/03 00:14:10;;;;;;;4.38;1.48;;;;;;;0.44;72.48;94124.72;5004637;28;20032;-76
2023/02/03 00:16:35;;;;;;;4.07;2.10;;;;;;;0.42;72.55;94126.00;5005777;28;20041;-76
2023/02/03 00:19:01;;;;;;;2.70;1.40;;;;;;;0.44;72.99;94121.31;5005813;28;20248;-72
2023/02/03 00:21:26;;;;;;;3.53;1.73;;;;;;;0.49;73.73;94111.69;5005566;28;20023;-72
2023/02/03 00:23:53;;;;;;;4.53;2.00;;;;;;;0.46;73.97;94120.03;5005495;28;20045;-71
2023/02/03 00:26:18;;;;;;;5.07;2.00;;;;;;;0.43;74.44;94128.38;5005602;28;20320;-72
2023/02/03 00:28:44;;;;;;;4.68;1.90;;;;;;;0.46;74.58;94111.38;5005814;28;20095;-71
2023/02/03 00:31:21;;;;;;;4.60;1.85;;;;;;;0.44;74.28;94132.59;5005524;28;20030;-71
2023/02/03 00:33:51;;;;;;;5.93;2.25;;;;;;;0.49;74.21;94116.94;5005396;28;20056;-71
2023/02/03 00:36:17;;;;;;;4.57;2.20;;;;;;;0.49;74.02;94118.72;5005383;28;20046;-71
2023/02/03 00:38:42;;;;;;;5.05;2.00;;;;;;;0.54;73.99;94122.22;5005370;28;20061;-71
2023/02/03 00:41:08;;;;;;;4.55;1.63;;;;;;;0.56;72.79;94122.78;5005256;28;20344;-71
2023/02/03 00:43:33;;;;;;;3.45;1.73;;;;;;;0.50;73.32;94134.22;5005396;28;20050;-73
2023/02/03 00:45:59;;;;;;;4.90;2.03;;;;;;;0.50;72.89;94138.69;5005447;28;20038;-73
2023/02/03 00:48:24;;;;;;;3.80;1.70;;;;;;;0.49;70.97;94143.16;5005121;28;20034;-73
2023/02/03 00:50:49;;;;;;;3.42;1.20;;;;;;;0.58;70.77;94136.44;5005160;28;20026;-71
2023/02/03 00:53:15;;;;;;;2.45;1.20;;;;;;;0.56;70.22;94125.38;5005154;28;20032;-70
2023/02/03 00:55:43;;;;;;;5.20;1.20;;;;;;;0.54;69.68;94130.09;5003952;28;20217;-70
2023/02/03 00:58:09;;;;;;;3.65;1.33;;;;;;;0.54;69.75;94150.28;5005120;28;20071;-70
2023/02/03 01:00:34;;;;;;;2.88;1.55;;;;;;;0.52;69.63;94137.41;5005416;28;20030;-70
2023/02/03 01:03:00;;;;;;;2.05;1.08;;;;;;;0.52;70.25;94150.53;5004932;28;20030;-70
2023/02/03 01:05:25;;;;;;;2.92;1.08;;;;;;;0.50;70.58;94152.59;5004969;28;20034;-70
2023/02/03 01:07:51;;;;;;;1.88;1.00;;;;;;;0.52;70.97;94155.78;5004878;28;20030;-70
2023/02/03 01:10:16;;;;;;;2.92;1.38;;;;;;;0.50;72.03;94173.56;5003471;28;20253;-70
2023/02/03 01:12:42;;;;;;;3.92;1.10;;;;;;;0.47;71.70;94162.78;5004768;28;20022;-71
2023/02/03 01:15:08;;;;;;;1.63;0.80;;;;;;;0.36;71.93;94174.97;5003505;28;20093;-70
2023/02/03 01:17:33;;;;;;;1.58;0.90;;;;;;;0.37;71.90;94169.47;5003653;28;20034;-70
2023/02/03 01:19:58;;;;;;;4.05;0.93;;;;;;;0.28;72.18;94151.78;5004691;28;20097;-70
2023/02/03 01:22:24;;;;;;;7.78;1.35;;;;;;;0.27;71.83;94158.84;5004362;28;20054;-70
2023/02/03 01:24:49;;;;;;;2.88;1.30;;;;;;;0.34;71.91;94154.22;5004260;28;20028;-70
2023/02/03 01:27:15;;;;;;;2.03;0.90;;;;;;;0.33;71.43;94159.72;5004451;28;20077;-70
2023/02/03 01:29:40;;;;;;;2.22;1.10;;;;;;;0.40;71.69;94160.31;5004471;28;20021;-70
2023/02/03 01:32:06;;;;;;;5.18;1.13;;;;;;;0.34;71.28;94161.28;5004415;28;20228;-70
2023/02/03 01:34:31;;;;;;;2.20;0.73;;;;;;;0.32;71.39;94150.25;5004547;28;20165;-70
2023/02/03 01:36:56;;;;;;;2.53;1.23;;;;;;;0.27;71.87;94144.97;5004207;28;20081;-70
2023/02/03 01:39:22;;;;;;;3.20;1.30;;;;;;;0.22;72.17;94144.88;5004271;28;20026;-70
2023/02/03 01:41:47;;;;;;;3.90;1.40;;;;;;;0.17;72.42;94156.88;5004098;28;20030;-70
2023/02/03 01:44:34;;;;;;;3.50;1.20;;;;;;;0.16;72.41;94164.97;5004172;28;20022;-70
2023/02/03 01:47:02;;;;;;;2.85;1.02;;;;;;;0.16;72.47;94154.50;5004295;28;20102;-70
2023/02/03 01:49:35;;;;;;;1.38;0.80;;;;;;;0.13;72.37;94174.13;5004078;28;20097;-70
2023/02/03 01:52:01;;;;;;;3.28;0.93;;;;;;;0.10;72.27;94179.03;5004208;28;20034;-70
2023/02/03 01:54:32;;;;;;;3.88;0.85;;;;;;;0.16;72.34;94176.28;5003953;28;20022;-70
2023/02/03 01:57:02;;;;;;;1.13;0.80;;;;;;;0.19;72.21;94175.78;5004019;28;20038;-70
2023/02/03 01:59:28;;;;;;;2.53;0.90;;;;;;;0.21;72.25;94188.66;5003885;28;20022;-70
2023/02/03 02:01:55;;;;;;;3.38;1.33;;;;;;;0.19;72.14;94175.78;5003923;28;20714;-70
2023/02/03 02:04:25;;;;;;;2.15;1.20;;;;;;;0.17;72.36;94180.47;5003818;28;20042;-71
2023/02/03 02:06:50;;;;;;;2.45;1.00;;;;;;;0.19;72.64;94181.03;5003459;28;20086;-70
2023/02/03 02:09:16;;;;;;;4.82;1.35;;;;;;;0.22;72.38;94187.59;5003642;28;20034;-71
2023/02/03 02:11:42;;;;;;;4.50;1.55;;;;;;;0.18;72.62;94182.06;5003780;28;20271;-71
2023/02/03 02:14:08;;;;;;;4.05;1.55;;;;;;;0.21;72.20;94187.88;5003686;28;20076;-72
2023/02/03 02:16:48;;;;;;;2.47;1.35;;;;;;;0.22;71.48;94192.06;5003670;28;20045;-71
2023/02/03 02:19:39;;;;;;;2.75;1.40;;;;;;;0.19;71.72;94204.63;5003810;28;20037;-71
2023/02/03 02:22:28;;;;;;;5.68;1.70;;;;;;;0.19;71.42;94201.22;5003603;28;20065;-71
2023/02/03 02:25:30;;;;;;;2.58;1.10;;;;;;;0.15;71.26;94215.81;5003476;28;20030;-71
2023/02/03 02:28:01;;;;;;;;;;;;;;;0.17;71.11;94205.91;5003946;28;20112;-71
2023/02/03 02:30:33;;;;;;;3.35;1.48;;;;;;;0.16;70.93;94202.50;5003605;28;20093;-71
2023/02/03 02:33:39;;;;;;;2.22;1.00;;;;;;;0.12;71.02;94208.41;5003566;28;20030;-71
2023/02/03 02:36:34;;;;;;;5.32;1.38;;;;;;;0.09;71.29;94207.09;4995506;28;20030;-71
2023/02/03 02:39:33;;;;;;;4.03;1.65;;;;;;;0.05;70.60;94213.03;5003554;28;20073;-72
2023/02/03 02:42:16;;;;;;;2.13;1.20;;;;;;;0.02;70.79;94195.97;5003510;28;20022;-71
2023/02/03 02:44:55;;;;;;;3.97;1.58;;;;;;;0.06;70.91;94207.56;5003333;28;20014;-71
2023/02/03 02:47:22;;;;;;;5.47;1.77;;;;;;;0.04;70.21;94209.63;5003324;28;20018;-71
2023/02/03 02:49:57;;;;;;;3.00;1.50;;;;;;;0.02;70.58;94195.97;5003382;28;20029;-71
2023/02/03 02:52:27;;;;;;;2.00;1.30;;;;;;;0.11;70.34;94194.53;5003404;28;20089;-71
2023/02/03 02:54:58;;;;;;;3.88;1.42;;;;;;;0.12;69.71;94193.50;5003383;28;20033;-71
2023/02/03 02:57:26;;;;;;;2.22;1.23;;;;;;;0.13;69.34;94196.91;5003349;28;20018;-71
2023/02/03 02:59:53;;;;;;;2.17;1.17;;;;;;;0.13;68.55;94205.56;5003128;28;20061;-71
2023/02/03 03:02:18;;;;;;;1.92;1.30;;;;;;;0.17;68.13;94221.63;5003332;28;20336;-71
2023/02/03 03:04:48;;;;;;;5.13;1.70;;;;;;;0.18;68.10;94218.78;5003090;28;20034;-71
2023/02/03 03:07:22;;;;;;;2.33;1.25;;;;;;;0.17;67.39;94221.63;5003305;28;20267;-71
2023/02/03 03:09:56;;;;;;;3.60;1.98;;;;;;;0.06;67.88;94231.16;5003218;28;20032;-71
2023/02/03 03:12:31;;;;;;;3.80;1.55;;;;;;;0.08;68.52;94213.38;5003195;28;20023;-71
2023/02/03 03:15:08;;;;;;;4.28;1.48;;;;;;;0.05;68.56;94229.56;5003051;28;20026;-71
2023/02/03 03:17:44;;;;;;;3.17;1.63;;;;;;;0.03;68.87;94225.59;5003168;28;20052;-71
2023/02/03 03:20:17;;;;;;;2.35;1.20;;;;;;;0.01;67.27;94215.34;5005425;28;20098;-71
2023/02/03 03:22:49;;;;;;;2.00;1.35;;;;;;;0.05;67.20;94226.94;5006674;28;20042;-71
2023/02/03 03:25:18;;;;;;;5.32;1.27;;;;;;;0.06;66.86;94236.41;5006930;28;20022;-71
2023/02/03 03:27:49;;;;;;;2.92;1.02;;;;;;;0.05;66.97;94242.66;5006679;28;20030;-71
2023/02/03 03:30:21;;;;;;;4.53;1.55;;;;;;;0.06;66.24;94244.28;5006893;28;20011;-71
2023/02/03 03:32:47;;;;;;;3.17;1.48;;;;;;;0.06;66.67;94230.34;5006785;28;20050;-71
2023/02/03 03:35:12;;;;;;;2.55;1.00;;;;;;;0.07;66.45;94240.59;5006549;28;20029;-71
2023/02/03 03:37:48;;;;;;;3.13;1.40;;;;;;;0.03;66.87;94229.00;5006643;28;20038;-71
2023/02/03 03:40:28;;;;;;;2.95;1.20;;;;;;;0.07;66.17;94227.50;5005259;28;20077;-71
2023/02/03 03:42:57;;;;;;;5.10;1.98;;;;;;;0.09;66.52;94225.44;5006504;28;20030;-72
2023/02/03 03:45:41;;;;;;;11.18;2.25;;;;;;;0.08;66.13;94226.47;5006478;28;20038;-72
2023/02/03 03:48:20;;;;;;;3.03;1.35;;;;;;;0.08;66.99;94228.28;5006323;28;20231;-71
2023/02/03 03:51:02;;;;;;;2.42;1.30;;;;;;;0.03;66.80;94228.22;5006289;28;20022;-71
2023/02/03 03:53:31;;;;;;;2.88;1.30;;;;;;;0.04;66.66;94246.34;5006152;28;20026;-71
2023/02/03 03:56:01;;;;;;;2.63;1.25;;;;;;;0.05;66.08;94250.53;5006162;28;21153;-71
2023/02/03 03:58:31;;;;;;;2.25;1.20;;;;;;;0.03;66.69;94223.75;5005828;28;20026;-72
2023/02/03 04:01:05;;;;;;;6.15;1.42;;;;;;;0.01;67.10;94225.03;5005736;28;20034;-71
2023/02/03 04:03:36;;;;;;;1.80;1.27;;;;;;;-0.08;67.35;94228.06;5006011;28;20030;-71
2023/02/03 04:06:03;;;;;;;3.08;1.40;;;;;;;-0.02;67.67;94221.03;5006377;28;20248;-71
2023/02/03 04:08:28;;;;;;;1.60;0.93;;;;;;;-0.13;67.89;94237.66;5005872;28;20034;-73
2023/02/03 04:10:53;;;;;;;2.90;1.25;;;;;;;-0.08;67.87;94229.84;5005848;28;20037;-74
2023/02/03 04:13:19;;;;;;;5.93;1.45;;;;;;;-0.11;68.11;94230.34;5005878;28;20072;-73
2023/02/03 04:15:45;;;;;;;1.65;1.00;;;;;;;-0.13;68.31;94262.03;5005678;28;20030;-73
2023/02/03 04:18:13;;;;;;;2.33;1.40;;;;;;;-0.10;68.60;94245.03;5005759;28;20033;-73
2023/02/03 04:20:39;;;;;;;2.50;1.27;;;;;;;-0.11;68.37;94246.84;5005742;28;20029;-73
2023/02/03 04:23:04;;;;;;;2.78;1.70;;;;;;;-0.12;68.20;94254.94;5005864;28;20050;-72
2023/02/03 04:25:30;;;;;;;3.35;1.65;;;;;;;-0.13;68.14;94251.53;5005846;28;20026;-71
2023/02/03 04:27:55;;;;;;;2.83;1.20;;;;;;;-0.11;68.24;94267.81;5005588;28;20034;-71
2023/02/03 04:30:21;;;;;;;3.30;1.60;;;;;;;-0.13;68.39;94274.34;5005321;28;20025;-72
2023/02/03 04:32:46;;;;;;;3.35;1.35;;;;;;;-0.14;68.34;94296.31;5005348;28;20325;-73
2023/02/03 04:35:12;;;;;;;3.17;1.23;;;;;;;-0.11;68.53;94290.63;5005609;28;20011;-73
2023/02/03 04:37:38;;;;;;;3.08;1.60;;;;;;;-0.07;68.35;94291.72;5005555;28;20022;-73
2023/02/03 04:40:04;;;;;;;2.72;1.20;;;;;;;-0.04;68.17;94292.06;5005604;28;20022;-73
2023/02/03 04:42:29;;;;;;;3.95;1.73;;;;;;;-0.04;67.94;94299.09;5005294;28;20045;-73
2023/02/03 04:44:55;;;;;;;1.60;1.10;;;;;;;-0.04;68.04;94304.34;5005128;28;20080;-73
2023/02/03 04:47:20;;;;;;;5.47;1.35;;;;;;;-0.02;68.33;94299.66;5005192;28;20018;-73
2023/02/03 04:49:46;;;;;;;3.13;1.38;;;;;;;0.01;68.03;94314.94;5005299;28;20256;-73
2023/02/03 04:52:12;;;;;;;3.30;1.35;;;;;;;0.00;68.20;94313.34;5005232;28;20268;-72
2023/02/03 04:54:38;;;;;;;2.25;1.30;;;;;;;0.02;67.50;94313.91;5005186;28;20026;-72
2023/02/03 04:57:04;;;;;;;5.13;2.00;;;;;;;0.07;68.01;94319.22;5005029;28;20033;-71
2023/02/03 04:59:30;;;;;;;2.67;1.55;;;;;;;0.04;67.70;94321.53;5005097;28;20154;-71
2023/02/03 05:01:55;;;;;;;4.65;1.50;;;;;;;0.03;67.78;94312.09;5004985;28;20320;-71
2023/02/03 05:04:21;;;;;;;1.95;1.33;;;;;;;0.05;67.74;94337.03;5004923;28;20044;-71
2023/02/03 05:06:46;;;;;;;4.10;1.42;;;;;;;0.09;67.23;94327.66;5004970;28;20198;-71
2023/02/03 05:09:12;;;;;;;2.95;1.08;;;;;;;0.14;66.67;94327.75;5004846;28;20093;-71
2023/02/03 05:11:37;;;;;;;2.63;1.30;;;;;;;0.15;66.42;94326.72;5004862;28;20383;-71
2023/02/03 05:14:03;;;;;;;2.15;1.05;;;;;;;0.19;66.94;94335.69;5004990;28;20029;-71
2023/02/03 05:16:28;;;;;;;3.72;1.60;;;;;;;0.21;66.44;94329.44;5004341;28;20317;-71
2023/02/03 05:18:54;;;;;;;2.85;1.20;;;;;;;0.19;66.70;94338.31;5004682;28;20068;-71
2023/02/03 05:21:19;;;;;;;4.07;1.60;;;;;;;0.21;66.67;94345.16;5004446;28;20018;-71
2023/02/03 05:23:45;;;;;;;5.90;1.83;;;;;;;0.26;67.23;94355.72;5004567;28;20069;-71
2023/02/03 05:26:11;;;;;;;4.13;1.65;;;;;;;0.28;66.69;94356.28;5004437;28;20301;-71
2023/02/03 05:28:36;;;;;;;3.53;1.85;;;;;;;0.27;66.96;94354.72;5004405;28;20468;-71
2023/02/03 05:31:02;;;;;;;3.42;1.75;;;;;;;0.25;67.20;94356.75;5004417;28;20033;-72
2023/02/03 05:33:28;;;;;;;3.28;1.42;;;;;;;0.19;67.58;94359.28;5004561;28;20271;-71
2023/02/03 05:35:53;;;;;;;2.83;1.52;;;;;;;0.16;67.85;94361.56;5004332;28;20230;-71
2023/02/03 05:38:19;;;;;;;3.15;1.40;;;;;;;0.10;67.48;94344.16;5004347;28;20276;-71
2023/02/03 05:43:33;;;;;;;3.45;1.65;;;;;;;-0.02;68.07;94352.91;5003816;28;20021;-70
2023/02/03 05:46:00;;;;;;;8.98;2.05;;;;;;;-0.03;68.46;94366.22;5004107;28;20014;-70
2023/02/03 05:48:26;;;;;;;3.60;1.45;;;;;;;-0.06;67.96;94340.47;5004305;28;20025;-71
2023/02/03 05:50:51;;;;;;;3.13;1.17;;;;;;;-0.08;68.53;94353.03;5004179;28;20026;-71
2023/02/03 05:53:16;;;;;;;3.35;1.55;;;;;;;-0.11;68.33;94363.97;5003959;28;20277;-71
2023/02/03 05:55:42;;;;;;;3.28;1.40;;;;;;;-0.14;68.33;94359.19;5003975;28;20026;-71
2023/02/03 05:58:07;;;;;;;4.53;2.40;;;;;;;-0.19;68.38;94359.13;5003956;28;20026;-70
2023/02/03 06:00:33;;;;;;;2.35;1.23;;;;;;;-0.13;67.95;94360.81;5004135;28;20037;-70
2023/02/03 06:03:01;;;;;;;2.90;1.42;;;;;;;-0.17;67.94;94370.16;5004004;28;20260;-71
2023/02/03 06:05:27;;;;;;;2.25;1.30;;;;;;;-0.13;68.12;94368.66;5003679;28;20026;-72
2023/02/03 06:07:53;;;;;;;3.58;1.55;;;;;;;-0.09;68.03;94372.41;5002560;28;20101;-72
2023/02/03 06:10:19;;;;;;;3.35;1.70;;;;;;;-0.17;68.25;94386.66;5003851;28;20038;-71
2023/02/03 06:12:44;;;;;;;2.20;1.40;;;;;;;-0.06;68.05;94382.41;5003846;28;20041;-72
2023/02/03 06:15:10;;;;;;;2.72;1.15;;;;;;;0.02;67.51;94379.44;5003673;28;20328;-72
2023/02/03 06:17:36;;;;;;;5.20;1.52;;;;;;;0.03;66.89;94386.25;5003514;28;20261;-71
2023/02/03 06:20:06;;;;;;;1.73;1.05;;;;;;;0.02;66.92;94374.19;5003800;28;20033;-71
2023/02/03 06:22:32;;;;;;;2.22;1.20;;;;;;;0.00;66.67;94373.63;5003449;28;20049;-71
2023/02/03 06:24:58;;;;;;;4.78;1.42;;;;;;;0.01;66.03;94384.91;5003718;28;20313;-72
2023/02/03 06:27:23;;;;;;;3.20;1.45;;;;;;;0.02;65.95;94395.16;5003507;28;20324;-73
2023/02/03 06:29:49;;;;;;;2.83;1.17;;;;;;;0.02;65.44;94389.94;5003625;28;20272;-73
2023/02/03 06:32:15;;;;;;;2.47;1.02;;;;;;;0.04;65.00;94368.69;5003507;28;20038;-73
2023/02/03 06:34:40;;;;;;;2.00;1.20;;;;;;;0.08;64.95;94399.47;5003569;28;20022;-71
2023/02/03 06:37:06;;;;;;;2.25;1.30;;;;;;;0.04;64.97;94400.16;5003258;28;20057;-71
2023/02/03 06:39:31;;;;;;;3.65;1.02;;;;;;;0.07;64.27;94382.13;5003492;28;20022;-71
2023/02/03 06:41:56;;;;;;;3.30;1.25;;;;;;;0.15;63.73;94402.72;5003353;28;20032;-71
2023/02/03 06:44:22;;;;;;;2.05;1.20;;;;;;;0.18;63.52;94410.16;5003268;28;20372;-71
2023/02/03 06:46:49;;;;;;;3.88;1.27;;;;;;;0.22;63.60;94420.16;5003125;28;20025;-71
2023/02/03 06:49:16;;;;;;;2.47;1.35;;;;;;;0.25;63.72;94422.31;5003090;28;20018;-71
2023/02/03 06:51:41;;;;;;;3.65;1.38;;;;;;;0.19;63.69;94405.69;5003302;28;20018;-71
2023/02/03 06:54:07;;;;;;;3.50;1.17;;;;;;;0.24;63.96;94416.25;5005780;28;20045;-71
2023/02/03 06:56:32;;;;;;;1.63;1.10;;;;;;;0.31;63.70;94414.28;5007318;28;20033;-71
2023/02/03 06:58:57;;;;;;;2.85;1.17;;;;;;;0.33;63.24;94411.44;5006823;28;20224;-72
2023/02/03 07:01:24;;;;;;;3.35;1.30;;;;;;;0.32;63.05;94394.09;5007174;28;20097;-73
2023/02/03 07:03:50;;;;;;;7.97;1.65;;;;;;;0.38;63.88;94407.06;5007098;28;20026;-72
2023/02/03 07:06:16;;;;;;;2.88;1.17;;;;;;;0.47;63.27;94415.38;5007199;28;20367;-72
2023/02/03 07:08:41;;;;;;;4.35;1.48;;;;;;;0.49;62.29;94415.94;5007099;28;20033;-72
2023/02/03 07:11:07;;;;;;;3.28;1.70;;;;;;;0.47;62.09;94404.88;5007132;28;20041;-72
2023/02/03 07:13:33;;;;;;;4.40;1.80;;;;;;;0.50;62.22;94385.25;5007225;28;20093;-71
2023/02/03 07:15:58;;;;;;;2.10;1.33;;;;;;;0.54;62.29;94402.88;5006813;28;20026;-71
2023/02/03 07:18:25;;;;;;;3.58;1.30;;;;;;;0.58;61.78;94408.47;5006719;28;20033;-70
2023/02/03 07:20:51;;;;;;;2.08;1.25;;;;;;;0.53;61.29;94398.69;5006836;28;20026;-71
2023/02/03 07:23:17;;;;;;;2.70;1.67;;;;;;;0.52;59.74;94398.91;5006707;28;20042;-70
2023/02/03 07:25:42;;;;;;;2.92;1.70;;;;;;;0.55;59.92;94401.88;5006767;28;20029;-71
2023/02/03 07:28:08;;;;;;;2.30;1.40;;;;;;;0.62;60.67;94403.53;5006726;28;20022;-71
2023/02/03 07:30:33;;;;;;;3.38;1.40;;;;;;;0.63;60.73;94410.38;5006967;28;20022;-70
2023/02/03 07:32:59;;;;;;;2.95;1.40;;;;;;;0.64;60.22;94412.75;5006479;28;20097;-71
2023/02/03 07:35:26;;;;;;;5.20;1.50;;;;;;;0.68;59.95;94415.72;5006381;28;20235;-70
2023/02/03 07:37:51;;;;;;;5.38;1.38;;;;;;;0.70;59.87;94417.06;5006641;28;20027;-70
2023/02/03 07:40:18;;;;;;;2.25;1.50;;;;;;;0.69;60.19;94419.91;5006516;28;20097;-70
2023/02/03 07:42:45;;;;;;;2.17;1.20;;;;;;;0.77;60.37;94432.63;5006549;28;20033;-70
2023/02/03 07:45:13;;;;;;;4.15;0.90;;;;;;;0.75;60.19;94455.69;5006448;28;20372;-70
2023/02/03 07:47:39;;;;;;;2.70;1.10;;;;;;;0.70;60.56;94438.03;5006414;28;20037;-70
2023/02/03 07:50:05;;;;;;;2.60;1.20;;;;;;;0.76;60.73;94437.09;5006288;28;20065;-70
2023/02/03 07:52:30;;;;;;;2.70;1.42;;;;;;;0.83;60.55;94429.06;5006395;28;20053;-75
2023/02/03 07:54:56;;;;;;;3.42;1.23;;;;;;;0.90;60.46;94437.59;5006224;28;20093;-74
2023/02/03 07:57:21;;;;;;;1.75;1.00;;;;;;;0.86;60.06;94441.72;5006190;28;20041;-75
2023/02/03 07:59:47;;;;;;;2.75;1.30;;;;;;;0.84;60.11;94448.25;5005995;28;20022;-75
2023/02/03 08:02:12;;;;;;;3.90;1.15;;;;;;;0.85;59.60;94450.63;5006150;28;20019;-75
2023/02/03 08:04:37;;;;;;;7.05;1.25;;;;;;;0.92;59.61;94453.91;5005341;28;20049;-75
2023/02/03 08:07:03;;;;;;;2.80;1.30;;;;;;;1.00;59.45;94460.59;5005953;28;20015;-75
2023/02/03 08:09:29;;;;;;;3.33;1.05;;;;;;;1.04;59.55;94453.00;5005867;28;20037;-75
2023/02/03 08:11:54;;;;;;;1.65;1.17;;;;;;;1.08;59.11;94449.69;5005906;28;20054;-75
2023/02/03 08:14:20;;;;;;;2.40;1.00;;;;;;;1.07;58.41;94479.59;5005745;28;20023;-75
2023/02/03 08:16:45;;;;;;;2.58;1.35;;;;;;;1.14;58.36;94461.88;5005752;28;20109;-75
2023/02/03 08:19:11;;;;;;;1.58;1.05;;;;;;;1.31;59.08;94463.69;5005678;28;20023;-75
2023/02/03 08:21:37;;;;;;;2.90;1.15;;;;;;;1.31;57.97;94459.22;5005521;28;20046;-76
2023/02/03 08:24:03;;;;;;;2.55;1.20;;;;;;;1.30;58.08;94475.22;5005804;28;20077;-77
2023/02/03 08:26:29;;;;;;;2.50;1.20;;;;;;;1.24;57.98;94487.47;5004545;28;20022;-76
2023/02/03 08:28:54;;;;;;;3.92;1.17;;;;;;;1.27;58.30;94460.75;5005442;28;20058;-76
2023/02/03 08:31:20;;;;;;;2.88;1.35;;;;;;;1.31;57.51;94469.72;5005262;28;20110;-77
2023/02/03 08:33:45;;;;;;;1.73;0.90;;;;;;;1.39;57.43;94456.19;5005116;28;20037;-77
2023/02/03 08:36:11;;;;;;;1.98;1.00;;;;;;;1.48;56.87;94480.22;5005127;28;20034;-76
2023/02/03 08:38:37;;;;;;;2.65;1.23;;;;;;;1.46;56.53;94477.03;5005506;28;20026;-77
2023/02/03 08:41:16;;;;;;;1.92;0.98;;;;;;;1.51;56.89;94471.06;5004350;28;20026;-77
2023/02/03 08:43:46;;;;;;;2.78;1.48;;;;;;;1.59;56.57;94484.59;5005247;28;20026;-77
2023/02/03 08:46:12;;;;;;;2.28;1.00;;;;;;;1.57;55.46;94459.59;5005236;28;20030;-77
2023/02/03 08:48:38;;;;;;;3.03;1.13;;;;;;;1.65;56.11;94480.22;5005277;28;20220;-77
2023/02/03 08:51:15;;;;;;;3.83;1.42;;;;;;;1.72;56.32;94506.31;5005361;28;20101;-76
2023/02/03 08:53:41;;;;;;;2.80;1.30;;;;;;;1.72;57.52;94498.44;5005081;28;20033;-77
2023/02/03 08:56:08;;;;;;;7.13;1.10;;;;;;;1.55;57.48;94496.63;5005286;28;20030;-76
2023/02/03 08:58:34;;;;;;;3.25;1.17;;;;;;;1.49;58.21;94515.19;5005159;28;20351;-76
2023/02/03 09:01:11;;;;;;;2.60;1.17;;;;;;;1.45;58.87;94500.94;5005262;28;20022;-76
2023/02/03 09:03:37;;;;;;;2.95;1.40;;;;;;;1.54;59.35;94507.34;5004793;28;20026;-76
2023/02/03 09:06:04;;;;;;;2.17;1.13;;;;;;;1.60;58.73;94511.66;5005235;28;20066;-76
2023/02/03 09:08:29;;;;;;;2.33;1.27;;;;;;;1.61;60.03;94513.25;5005170;28;20022;-76
2023/02/03 09:10:55;;;;;;;2.58;1.55;;;;;;;1.80;59.25;94498.78;5004824;28;20236;-78
2023/02/03 09:13:20;;;;;;;1.80;0.98;;;;;;;1.92;58.84;94485.56;5004849;28;20220;-77
2023/02/03 09:15:46;;;;;;;2.85;1.20;;;;;;;1.96;59.18;94488.50;5004638;28;20394;-76
2023/02/03 09:18:11;;;;;;;2.60;1.20;;;;;;;1.97;58.46;94482.19;5003665;28;20097;-76
2023/02/03 09:20:37;;;;;;;3.97;1.23;;;;;;;1.96;58.81;94472.72;5004771;28;20022;-76
2023/02/03 09:23:02;;;;;;;1.75;1.05;;;;;;;1.96;59.42;94470.88;5004619;28;20050;-77
2023/02/03 09:25:28;;;;;;;2.53;1.10;;;;;;;1.89;58.61;94469.47;5004592;28;20032;-77
2023/02/03 09:27:53;;;;;;;3.58;1.15;;;;;;;1.82;58.17;94471.50;5004581;28;20371;-78
2023/02/03 09:30:19;;;;;;;3.58;1.10;;;;;;;1.95;58.96;94489.53;5003591;28;20109;-76
2023/02/03 09:32:47;;;;;;;2.22;1.00;;;;;;;1.95;58.41;94477.16;5004499;28;20033;-76
2023/02/03 09:35:13;;;;;;;1.38;0.95;;;;;;;1.98;58.19;94473.28;5004367;28;20022;-77
2023/02/03 09:37:39;;;;;;;5.35;1.05;;;;;;;2.08;57.89;94483.13;5004365;28;20089;-76
2023/02/03 09:40:05;;;;;;;2.38;1.40;;;;;;;2.13;58.41;94476.06;5004519;28;20030;-78
2023/02/03 09:42:49;;;;;;;5.75;1.40;;;;;;;2.16;57.66;94475.59;5004401;28;20089;-76
2023/02/03 09:45:23;;;;;;;4.18;1.15;;;;;;;2.08;57.05;94520.72;5004382;28;20104;-75
2023/02/03 09:48:19;;;;;;;2.88;1.33;;;;;;;1.87;56.96;94474.16;5100841;27;20403;-77
2023/02/03 09:50:46;;;;;;;2.13;1.30;;;;;;;1.81;58.62;94473.31;5100560;28;20061;-74
2023/02/03 09:53:44;;;;;;;4.38;1.52;;;;;;;1.75;57.72;94475.09;5100258;28;20016;-79
2023/02/03 09:56:22;;;;;;;1.63;1.10;;;;;;;1.79;59.02;94464.88;5100307;28;20093;-79
2023/02/03 09:58:47;;;;;;;10.80;1.27;;;;;;;1.80;58.61;94462.00;5100398;28;20042;-76
2023/02/03 10:01:16;;;;;;;5.75;1.48;;;;;;;1.75;58.89;94448.00;5100381;28;20338;-77
2023/02/03 10:03:53;;;;;;;3.55;1.27;;;;;;;1.85;58.06;94458.63;5100399;28;20020;-76
2023/02/03 10:06:23;;;;;;;2.55;1.50;;;;;;;2.01;55.80;94451.75;5100297;28;20370;-76
2023/02/03 10:08:58;;;;;;;3.90;1.40;;;;;;;1.97;55.93;94456.72;5100181;28;20054;-77
2023/02/03 10:11:52;;;;;;;4.65;1.50;;;;;;;2.07;56.11;94456.03;5116046;28;20315;-77
2023/02/03 10:14:39;;;;;;;3.95;1.10;;;;;;;2.07;55.03;94471.78;5100228;28;20024;-77
2023/02/03 10:17:13;;;;;;;1.83;1.08;;;;;;;2.13;54.95;94460.28;5100247;28;20028;-77
2023/02/03 10:19:59;;;;;;;2.20;0.80;;;;;;;2.14;55.28;94454.00;5099912;28;20031;-78
2023/02/03 10:22:27;;;;;;;3.03;0.93;;;;;;;2.19;54.66;94448.00;5099889;28;20027;-76
2023/02/03 10:25:19;;;;;;;6.53;2.55;;;;;;;2.29;55.39;94440.22;5099835;28;20051;-77
2023/02/03 10:27:46;;;;;;;;;;;;;;;2.25;56.21;94449.66;5099237;28;20031;-76
2023/02/03 10:30:20;;;;;;;7.07;1.23;;;;;;;2.22;55.46;94442.28;5100031;28;20103;-78
2023/02/03 10:32:52;;;;;;;2.28;1.10;;;;;;;2.19;54.44;94469.84;5099809;28;20020;-78
2023/02/03 10:35:18;;;;;;;4.50;1.20;;;;;;;2.19;54.14;94443.53;5099571;28;20096;-77
2023/02/03 10:37:57;;;;;;;3.75;1.40;;;;;;;2.35;53.73;94435.81;5099861;28;20020;-77
2023/02/03 10:40:24;;;;;;;2.33;1.50;;;;;;;2.38;52.26;94425.59;5099667;28;20309;-79
2023/02/03 10:45:37;;;;;;;1.88;1.02;;;;;;;2.73;51.64;94440.16;5100462;28;20082;-78
2023/02/03 10:48:06;;;;;;;2.10;1.00;;;;;;;2.84;50.65;94440.25;5120001;28;20020;-77
2023/02/03 10:50:31;;;;;;;3.13;1.27;;;;;;;2.95;50.11;94424.28;5118686;28;20020;-79
2023/02/03 10:53:17;;;;;;;5.40;1.35;;;;;;;2.81;50.94;94425.75;5119656;28;20138;-78
2023/02/03 10:55:44;;;;;;;6.93;2.08;;;;;;;2.90;52.00;94432.13;5112334;28;20040;-78
2023/02/03 10:58:16;;;;;;;3.20;1.52;;;;;;;2.93;50.90;94421.13;5112426;28;20028;-77
2023/02/03 11:00:42;;;;;;;2.58;1.20;;;;;;;2.85;50.00;94428.66;5106069;28;20028;-76
2023/02/03 11:03:28;;;;;;;4.70;0.90;;;;;;;2.63;48.62;94420.84;5105960;28;20392;-81
2023/02/03 11:06:16;;;;;;;2.00;1.13;;;;;;;2.46;48.06;94455.94;5104260;28;20035;-78
2023/02/03 11:08:44;;;;;;;3.33;0.93;;;;;;;2.37;47.83;94439.78;5105577;28;20087;-78
2023/02/03 11:11:18;;;;;;;4.82;1.75;;;;;;;2.36;45.90;94442.66;5104547;28;20091;-76
2023/02/03 11:13:44;;;;;;;3.67;1.45;;;;;;;2.37;46.54;94417.97;5105402;28;20322;-77
2023/02/03 11:16:15;;;;;;;6.30;1.10;;;;;;;2.38;46.55;94430.88;5105202;28;20027;-77
2023/02/03 11:19:13;;;;;;;7.20;1.30;;;;;;;2.66;47.76;94446.66;5105870;28;20042;-77
2023/02/03 11:21:38;;;;;;;1.45;1.02;;;;;;;2.69;47.03;94409.31;5105758;28;20050;-77
2023/02/03 11:24:23;;;;;;;3.38;1.20;;;;;;;2.77;47.60;94409.66;5105861;28;20257;-77
2023/02/03 11:26:56;;;;;;;5.68;1.30;;;;;;;2.89;49.05;94427.94;5105327;28;20035;-75
2023/02/03 11:29:27;;;;;;;3.65;1.13;;;;;;;2.92;50.01;94400.28;5105585;28;20028;-76
2023/02/03 11:31:55;;;;;;;7.25;1.40;;;;;;;2.91;48.14;94394.25;5105387;28;20031;-75
2023/02/03 11:34:27;;;;;;;4.72;1.40;;;;;;;2.74;47.03;94394.34;5105392;28;20032;-76
2023/02/03 11:36:53;;;;;;;;;;;;;;;2.66;45.60;94404.53;5105566;28;20038;-76
2023/02/03 11:39:26;;;;;;;2.10;1.60;;;;;;;2.56;46.88;94395.50;5104044;28;19983;-76
2023/02/03 11:41:52;;;;;;;6.90;1.90;;;;;;;2.84;49.16;94384.97;5104950;28;20087;-76
2023/02/03 11:44:21;;;;;;;5.97;1.92;;;;;;;2.89;47.51;94380.53;5105132;28;20031;-76
2023/02/03 11:46:53;;;;;;;7.13;1.35;;;;;;;2.97;46.89;94374.81;5104927;28;20128;-76
2023/02/03 11:49:37;;;;;;;5.05;1.83;;;;;;;2.96;47.76;94394.25;5105091;28;20020;-76
2023/02/03 11:52:20;;;;;;;4.38;1.45;;;;;;;3.11;48.12;94376.97;5104758;28;20062;-75
2023/02/03 11:55:19;;;;;;;5.43;1.50;;;;;;;3.02;46.49;94392.47;5104985;28;20059;-77
2023/02/03 11:58:03;;;;;;;3.10;1.45;;;;;;;2.91;47.20;94399.50;5104720;28;20192;-76